sensor_id;sensor_type;location;lat;lon;timestamp;temperature;humidity
3996;DHT22;2012;49.794;9.722;2023-08-30T00:01:12;13.90;99.90
3996;DHT22;2012;49.794;9.722;2023-08-30T00:03:39;13.90;99.90
3996;DHT22;2012;49.794;9.722;2023-08-30T00:06:06;14.00;99.90
3996;DHT22;2012;49.794;9.722;2023-08-30T00:08:34;14.00;99.90
3996;DHT22;2012;49.794;9.722;2023-08-30T00:11:01;14.00;99.90
3996;DHT22;2012;49.794;9.722;2023-08-30T00:13:30;14.00;99.90
3996;DHT22;2012;49.794;9.722;2023-08-30T00:15:58;14.00;99.90
3996;DHT22;2012;49.794;9.722;2023-08-30T00:18:25;13.90;99.90
3996;DHT22;2012;49.794;9.722;2023-08-30T00:20:52;14.00;99.90
3996;DHT22;2012;49.794;9.722;2023-08-30T00:23:20;14.10;99.90
3996;DHT22;2012;49.794;9.722;2023-08-30T00:25:47;14.00;99.90
3996;DHT22;2012;49.794;9.722;2023-08-30T00:28:14;14.00;99.90
3996;DHT22;2012;49.794;9.722;2023-08-30T00:30:41;14.00;99.90
3996;DHT22;2012;49.794;9.722;2023-08-30T00:33:08;13.90;99.90
3996;DHT22;2012;49.794;9.722;2023-08-30T00:35:35;14.00;99.90
3996;DHT22;2012;49.794;9.722;2023-08-30T00:38:03;13.90;99.90
3996;DHT22;2012;49.794;9.722;2023-08-30T00:40:38;13.90;99.90
3996;DHT22;2012;49.794;9.722;2023-08-30T00:43:06;13.90;99.90
3996;DHT22;2012;49.794;9.722;2023-08-30T00:45:34;13.90;99.90
3996;DHT22;2012;49.794;9.722;2023-08-30T00:48:01;13.90;99.90
3996;DHT22;2012;49.794;9.722;2023-08-30T00:50:28;13.90;99.90
3996;DHT22;2012;49.794;9.722;2023-08-30T00:52:55;13.80;99.90
3996;DHT22;2012;49.794;9.722;2023-08-30T00:55:22;13.80;99.90
3996;DHT22;2012;49.794;9.722;2023-08-30T00:57:49;13.70;99.90
3996;DHT22;2012;49.794;9.722;2023-08-30T01:00:16;13.70;99.90
3996;DHT22;2012;49.794;9.722;2023-08-30T01:02:44;13.70;99.90
3996;DHT22;2012;49.794;9.722;2023-08-30T01:05:12;13.70;99.90
3996;DHT22;2012;49.794;9.722;2023-08-30T01:07:39;13.70;99.90
3996;DHT22;2012;49.794;9.722;2023-08-30T01:10:06;13.70;99.90
3996;DHT22;2012;49.794;9.722;2023-08-30T01:12:47;13.70;99.90
3996;DHT22;2012;49.794;9.722;2023-08-30T01:15:19;13.70;99.90
3996;DHT22;2012;49.794;9.722;2023-08-30T01:17:48;13.70;99.90
3996;DHT22;2012;49.794;9.722;2023-08-30T01:20:16;13.60;99.90
3996;DHT22;2012;49.794;9.722;2023-08-30T01:22:59;13.60;99.90
3996;DHT22;2012;49.794;9.722;2023-08-30T01:28:22;13.50;99.90
3996;DHT22;2012;49.794;9.722;2023-08-30T01:30:52;13.40;99.90
3996;DHT22;2012;49.794;9.722;2023-08-30T01:33:23;13.40;99.90
3996;DHT22;2012;49.794;9.722;2023-08-30T01:35:52;13.50;99.90
3996;DHT22;2012;49.794;9.722;2023-08-30T01:38:19;13.40;99.90
3996;DHT22;2012;49.794;9.722;2023-08-30T01:40:47;13.40;99.90
3996;DHT22;2012;49.794;9.722;2023-08-30T01:43:16;13.40;99.90
3996;DHT22;2012;49.794;9.722;2023-08-30T01:45:44;13.50;99.90
3996;DHT22;2012;49.794;9.722;2023-08-30T01:48:13;13.50;99.90
3996;DHT22;2012;49.794;9.722;2023-08-30T01:50:42;13.50;99.90
3996;DHT22;2012;49.794;9.722;2023-08-30T01:53:11;13.50;99.90
3996;DHT22;2012;49.794;9.722;2023-08-30T01:55:39;13.40;99.90
3996;DHT22;2012;49.794;9.722;2023-08-30T01:58:07;13.50;99.90
3996;DHT22;2012;49.794;9.722;2023-08-30T02:00:35;13.50;99.90
3996;DHT22;2012;49.794;9.722;2023-08-30T02:03:13;13.50;99.90
3996;DHT22;2012;49.794;9.722;2023-08-30T02:05:57;13.60;99.90
3996;DHT22;2012;49.794;9.722;2023-08-30T02:08:41;13.60;99.90
3996;DHT22;2012;49.794;9.722;2023-08-30T02:11:15;13.60;99.90
3996;DHT22;2012;49.794;9.722;2023-08-30T02:13:44;13.60;99.90
3996;DHT22;2012;49.794;9.722;2023-08-30T02:16:13;13.60;99.90
3996;DHT22;2012;49.794;9.722;2023-08-30T02:18:41;13.60;99.90
3996;DHT22;2012;49.794;9.722;2023-08-30T02:21:09;13.60;99.90
3996;DHT22;2012;49.794;9.722;2023-08-30T02:23:36;13.60;99.90
3996;DHT22;2012;49.794;9.722;2023-08-30T02:26:03;13.60;99.90
3996;DHT22;2012;49.794;9.722;2023-08-30T02:28:30;13.60;99.90
3996;DHT22;2012;49.794;9.722;2023-08-30T02:30:56;13.60;99.90
3996;DHT22;2012;49.794;9.722;2023-08-30T02:33:23;13.60;99.90
3996;DHT22;2012;49.794;9.722;2023-08-30T02:35:50;13.60;99.90
3996;DHT22;2012;49.794;9.722;2023-08-30T02:38:17;13.60;99.90
3996;DHT22;2012;49.794;9.722;2023-08-30T02:40:44;13.60;99.90
3996;DHT22;2012;49.794;9.722;2023-08-30T02:43:11;13.50;99.90
3996;DHT22;2012;49.794;9.722;2023-08-30T02:45:38;13.50;99.90
3996;DHT22;2012;49.794;9.722;2023-08-30T02:48:05;13.50;99.90
3996;DHT22;2012;49.794;9.722;2023-08-30T02:50:33;13.50;99.90
3996;DHT22;2012;49.794;9.722;2023-08-30T02:53:00;13.50;99.90
3996;DHT22;2012;49.794;9.722;2023-08-30T02:55:27;13.50;99.90
3996;DHT22;2012;49.794;9.722;2023-08-30T02:57:54;13.50;99.90
3996;DHT22;2012;49.794;9.722;2023-08-30T03:00:21;13.60;99.90
3996;DHT22;2012;49.794;9.722;2023-08-30T03:02:49;13.60;99.90
3996;DHT22;2012;49.794;9.722;2023-08-30T03:05:17;13.60;99.90
3996;DHT22;2012;49.794;9.722;2023-08-30T03:07:45;13.60;99.90
3996;DHT22;2012;49.794;9.722;2023-08-30T03:10:12;13.60;99.90
3996;DHT22;2012;49.794;9.722;2023-08-30T03:12:39;13.60;99.90
3996;DHT22;2012;49.794;9.722;2023-08-30T03:15:06;13.60;99.90
3996;DHT22;2012;49.794;9.722;2023-08-30T03:17:35;13.60;99.90
3996;DHT22;2012;49.794;9.722;2023-08-30T03:20:03;13.50;99.90
3996;DHT22;2012;49.794;9.722;2023-08-30T03:22:33;13.50;99.90
3996;DHT22;2012;49.794;9.722;2023-08-30T03:25:00;13.50;99.90
3996;DHT22;2012;49.794;9.722;2023-08-30T03:27:30;13.50;99.90
3996;DHT22;2012;49.794;9.722;2023-08-30T03:29:57;13.40;99.90
3996;DHT22;2012;49.794;9.722;2023-08-30T03:32:24;13.40;99.90
3996;DHT22;2012;49.794;9.722;2023-08-30T03:34:51;13.40;99.90
3996;DHT22;2012;49.794;9.722;2023-08-30T03:37:18;13.50;99.90
3996;DHT22;2012;49.794;9.722;2023-08-30T03:39:45;13.50;99.90
3996;DHT22;2012;49.794;9.722;2023-08-30T03:42:12;13.50;99.90
3996;DHT22;2012;49.794;9.722;2023-08-30T03:44:39;13.50;99.90
3996;DHT22;2012;49.794;9.722;2023-08-30T03:47:06;13.60;99.90
3996;DHT22;2012;49.794;9.722;2023-08-30T03:49:34;13.50;99.90
3996;DHT22;2012;49.794;9.722;2023-08-30T03:52:01;13.50;99.90
3996;DHT22;2012;49.794;9.722;2023-08-30T03:54:28;13.40;99.90
3996;DHT22;2012;49.794;9.722;2023-08-30T03:56:55;13.50;99.90
3996;DHT22;2012;49.794;9.722;2023-08-30T03:59:22;13.50;99.90
3996;DHT22;2012;49.794;9.722;2023-08-30T04:01:53;13.50;99.90
3996;DHT22;2012;49.794;9.722;2023-08-30T04:04:20;13.50;99.90
3996;DHT22;2012;49.794;9.722;2023-08-30T04:06:47;13.50;99.90
3996;DHT22;2012;49.794;9.722;2023-08-30T04:09:15;13.50;99.90
3996;DHT22;2012;49.794;9.722;2023-08-30T04:11:43;13.50;99.90
3996;DHT22;2012;49.794;9.722;2023-08-30T04:14:10;13.50;99.90
3996;DHT22;2012;49.794;9.722;2023-08-30T04:16:37;13.50;99.90
3996;DHT22;2012;49.794;9.722;2023-08-30T04:19:06;13.50;99.90
3996;DHT22;2012;49.794;9.722;2023-08-30T04:21:33;13.50;99.90
3996;DHT22;2012;49.794;9.722;2023-08-30T04:24:00;13.40;99.90
3996;DHT22;2012;49.794;9.722;2023-08-30T04:26:27;13.30;99.90
3996;DHT22;2012;49.794;9.722;2023-08-30T04:28:55;13.40;99.90
3996;DHT22;2012;49.794;9.722;2023-08-30T04:31:22;13.40;99.90
3996;DHT22;2012;49.794;9.722;2023-08-30T04:33:49;13.40;99.90
3996;DHT22;2012;49.794;9.722;2023-08-30T04:36:19;13.50;99.90
3996;DHT22;2012;49.794;9.722;2023-08-30T04:38:47;13.50;99.90
3996;DHT22;2012;49.794;9.722;2023-08-30T04:41:28;13.40;99.90
3996;DHT22;2012;49.794;9.722;2023-08-30T04:43:54;13.50;99.90
3996;DHT22;2012;49.794;9.722;2023-08-30T04:46:22;13.50;99.90
3996;DHT22;2012;49.794;9.722;2023-08-30T04:48:49;13.50;99.90
3996;DHT22;2012;49.794;9.722;2023-08-30T04:51:16;13.50;99.90
3996;DHT22;2012;49.794;9.722;2023-08-30T04:53:43;13.40;99.90
3996;DHT22;2012;49.794;9.722;2023-08-30T04:56:12;13.50;99.90
3996;DHT22;2012;49.794;9.722;2023-08-30T04:58:39;13.50;99.90
3996;DHT22;2012;49.794;9.722;2023-08-30T05:01:08;13.50;99.90
3996;DHT22;2012;49.794;9.722;2023-08-30T05:03:37;13.40;99.90
3996;DHT22;2012;49.794;9.722;2023-08-30T05:06:07;13.40;99.90
3996;DHT22;2012;49.794;9.722;2023-08-30T05:08:34;13.50;99.90
3996;DHT22;2012;49.794;9.722;2023-08-30T05:11:01;13.50;99.90
3996;DHT22;2012;49.794;9.722;2023-08-30T05:13:32;13.60;99.90
3996;DHT22;2012;49.794;9.722;2023-08-30T05:15:59;13.60;99.90
3996;DHT22;2012;49.794;9.722;2023-08-30T05:18:27;13.60;99.90
3996;DHT22;2012;49.794;9.722;2023-08-30T05:20:54;13.60;99.90
3996;DHT22;2012;49.794;9.722;2023-08-30T05:23:21;13.60;99.90
3996;DHT22;2012;49.794;9.722;2023-08-30T05:25:48;13.70;99.90
3996;DHT22;2012;49.794;9.722;2023-08-30T05:28:16;13.60;99.90
3996;DHT22;2012;49.794;9.722;2023-08-30T05:30:44;13.60;99.90
3996;DHT22;2012;49.794;9.722;2023-08-30T05:33:26;13.60;99.90
3996;DHT22;2012;49.794;9.722;2023-08-30T05:36:05;13.60;99.90
3996;DHT22;2012;49.794;9.722;2023-08-30T05:38:50;13.60;99.90
3996;DHT22;2012;49.794;9.722;2023-08-30T05:41:32;13.70;99.90
3996;DHT22;2012;49.794;9.722;2023-08-30T05:43:59;13.70;99.90
3996;DHT22;2012;49.794;9.722;2023-08-30T05:46:26;13.60;99.90
3996;DHT22;2012;49.794;9.722;2023-08-30T05:48:54;13.70;99.90
3996;DHT22;2012;49.794;9.722;2023-08-30T05:51:22;13.70;99.90
3996;DHT22;2012;49.794;9.722;2023-08-30T05:53:50;13.70;99.90
3996;DHT22;2012;49.794;9.722;2023-08-30T05:56:17;13.70;99.90
3996;DHT22;2012;49.794;9.722;2023-08-30T05:58:44;13.60;99.90
3996;DHT22;2012;49.794;9.722;2023-08-30T06:01:11;13.70;99.90
3996;DHT22;2012;49.794;9.722;2023-08-30T06:03:37;13.50;99.90
3996;DHT22;2012;49.794;9.722;2023-08-30T06:06:05;13.60;99.90
3996;DHT22;2012;49.794;9.722;2023-08-30T06:08:32;13.80;99.90
3996;DHT22;2012;49.794;9.722;2023-08-30T06:10:59;13.80;99.90
3996;DHT22;2012;49.794;9.722;2023-08-30T06:13:26;13.80;99.90
3996;DHT22;2012;49.794;9.722;2023-08-30T06:15:53;13.90;99.90
3996;DHT22;2012;49.794;9.722;2023-08-30T06:18:20;13.90;99.90
3996;DHT22;2012;49.794;9.722;2023-08-30T06:20:47;13.80;99.90
3996;DHT22;2012;49.794;9.722;2023-08-30T06:23:18;13.90;99.90
3996;DHT22;2012;49.794;9.722;2023-08-30T06:25:52;13.90;99.90
3996;DHT22;2012;49.794;9.722;2023-08-30T06:28:20;14.00;99.90
3996;DHT22;2012;49.794;9.722;2023-08-30T06:30:47;14.00;99.90
3996;DHT22;2012;49.794;9.722;2023-08-30T06:33:14;14.10;99.90
3996;DHT22;2012;49.794;9.722;2023-08-30T06:35:40;14.10;99.90
3996;DHT22;2012;49.794;9.722;2023-08-30T06:38:09;14.10;99.90
3996;DHT22;2012;49.794;9.722;2023-08-30T06:40:36;14.20;99.90
3996;DHT22;2012;49.794;9.722;2023-08-30T06:43:03;14.20;99.90
3996;DHT22;2012;49.794;9.722;2023-08-30T06:45:30;14.20;99.90
3996;DHT22;2012;49.794;9.722;2023-08-30T06:47:58;14.20;99.90
3996;DHT22;2012;49.794;9.722;2023-08-30T06:50:25;14.30;99.90
3996;DHT22;2012;49.794;9.722;2023-08-30T06:52:52;14.30;99.90
3996;DHT22;2012;49.794;9.722;2023-08-30T06:55:18;14.20;99.90
3996;DHT22;2012;49.794;9.722;2023-08-30T06:57:47;14.30;99.90
3996;DHT22;2012;49.794;9.722;2023-08-30T07:00:16;14.30;99.90
3996;DHT22;2012;49.794;9.722;2023-08-30T07:02:43;14.40;99.90
3996;DHT22;2012;49.794;9.722;2023-08-30T07:05:13;14.60;99.90
3996;DHT22;2012;49.794;9.722;2023-08-30T07:07:40;14.50;99.90
3996;DHT22;2012;49.794;9.722;2023-08-30T07:10:07;14.60;99.90
3996;DHT22;2012;49.794;9.722;2023-08-30T07:12:34;14.70;99.90
3996;DHT22;2012;49.794;9.722;2023-08-30T07:15:01;14.70;99.90
3996;DHT22;2012;49.794;9.722;2023-08-30T07:17:30;14.70;99.90
3996;DHT22;2012;49.794;9.722;2023-08-30T07:20:17;14.80;99.90
3996;DHT22;2012;49.794;9.722;2023-08-30T07:22:44;14.90;99.90
3996;DHT22;2012;49.794;9.722;2023-08-30T07:25:10;14.90;99.90
3996;DHT22;2012;49.794;9.722;2023-08-30T07:27:38;15.00;99.90
3996;DHT22;2012;49.794;9.722;2023-08-30T07:30:06;15.10;99.90
3996;DHT22;2012;49.794;9.722;2023-08-30T07:32:34;15.00;99.90
3996;DHT22;2012;49.794;9.722;2023-08-30T07:35:03;14.90;99.90
3996;DHT22;2012;49.794;9.722;2023-08-30T07:37:30;14.90;99.90
3996;DHT22;2012;49.794;9.722;2023-08-30T07:39:57;15.00;99.90
3996;DHT22;2012;49.794;9.722;2023-08-30T07:42:24;15.00;99.90
3996;DHT22;2012;49.794;9.722;2023-08-30T07:44:52;15.20;99.90
3996;DHT22;2012;49.794;9.722;2023-08-30T07:47:19;15.20;99.90
3996;DHT22;2012;49.794;9.722;2023-08-30T07:49:46;15.30;99.90
3996;DHT22;2012;49.794;9.722;2023-08-30T07:52:12;15.30;99.90
3996;DHT22;2012;49.794;9.722;2023-08-30T07:54:40;15.20;99.90
3996;DHT22;2012;49.794;9.722;2023-08-30T07:57:07;15.40;99.90
3996;DHT22;2012;49.794;9.722;2023-08-30T07:59:38;15.50;99.90
3996;DHT22;2012;49.794;9.722;2023-08-30T08:02:06;15.70;99.90
3996;DHT22;2012;49.794;9.722;2023-08-30T08:04:35;15.70;99.90
3996;DHT22;2012;49.794;9.722;2023-08-30T08:07:02;15.80;99.90
3996;DHT22;2012;49.794;9.722;2023-08-30T08:09:31;15.80;99.90
3996;DHT22;2012;49.794;9.722;2023-08-30T08:11:58;15.90;99.90
3996;DHT22;2012;49.794;9.722;2023-08-30T08:14:25;16.00;99.90
3996;DHT22;2012;49.794;9.722;2023-08-30T08:16:52;16.00;99.90
3996;DHT22;2012;49.794;9.722;2023-08-30T08:19:19;16.10;99.90
3996;DHT22;2012;49.794;9.722;2023-08-30T08:21:51;16.30;99.90
3996;DHT22;2012;49.794;9.722;2023-08-30T08:24:21;16.50;99.90
3996;DHT22;2012;49.794;9.722;2023-08-30T08:26:48;16.50;99.90
3996;DHT22;2012;49.794;9.722;2023-08-30T08:29:15;16.50;99.90
3996;DHT22;2012;49.794;9.722;2023-08-30T08:31:42;16.70;99.90
3996;DHT22;2012;49.794;9.722;2023-08-30T08:34:11;16.60;99.90
3996;DHT22;2012;49.794;9.722;2023-08-30T08:36:39;16.70;99.90
3996;DHT22;2012;49.794;9.722;2023-08-30T08:39:06;16.70;99.90
3996;DHT22;2012;49.794;9.722;2023-08-30T08:41:42;16.80;99.90
3996;DHT22;2012;49.794;9.722;2023-08-30T08:44:10;16.90;99.90
3996;DHT22;2012;49.794;9.722;2023-08-30T08:46:39;16.90;99.90
3996;DHT22;2012;49.794;9.722;2023-08-30T08:49:12;16.70;99.90
3996;DHT22;2012;49.794;9.722;2023-08-30T08:51:41;16.80;99.90
3996;DHT22;2012;49.794;9.722;2023-08-30T08:54:10;17.00;99.90
3996;DHT22;2012;49.794;9.722;2023-08-30T08:56:38;17.20;99.90
3996;DHT22;2012;49.794;9.722;2023-08-30T08:59:06;17.30;99.90
3996;DHT22;2012;49.794;9.722;2023-08-30T09:01:36;17.30;99.90
3996;DHT22;2012;49.794;9.722;2023-08-30T09:04:08;17.30;99.90
3996;DHT22;2012;49.794;9.722;2023-08-30T09:06:36;17.30;99.90
3996;DHT22;2012;49.794;9.722;2023-08-30T09:09:03;17.30;99.90
3996;DHT22;2012;49.794;9.722;2023-08-30T09:11:31;17.30;99.90
3996;DHT22;2012;49.794;9.722;2023-08-30T09:14:16;17.30;99.90
3996;DHT22;2012;49.794;9.722;2023-08-30T09:16:54;17.50;99.90
3996;DHT22;2012;49.794;9.722;2023-08-30T09:19:21;17.50;99.90
3996;DHT22;2012;49.794;9.722;2023-08-30T09:21:56;17.50;99.90
3996;DHT22;2012;49.794;9.722;2023-08-30T09:24:24;17.70;99.90
3996;DHT22;2012;49.794;9.722;2023-08-30T09:26:53;17.80;99.90
3996;DHT22;2012;49.794;9.722;2023-08-30T09:29:21;17.90;99.90
3996;DHT22;2012;49.794;9.722;2023-08-30T09:31:53;17.90;99.90
3996;DHT22;2012;49.794;9.722;2023-08-30T09:34:26;18.00;99.90
3996;DHT22;2012;49.794;9.722;2023-08-30T09:36:54;18.30;99.90
3996;DHT22;2012;49.794;9.722;2023-08-30T09:39:22;18.30;99.90
3996;DHT22;2012;49.794;9.722;2023-08-30T09:41:49;18.20;99.90
3996;DHT22;2012;49.794;9.722;2023-08-30T09:44:18;18.60;99.90
3996;DHT22;2012;49.794;9.722;2023-08-30T09:46:51;18.20;99.90
3996;DHT22;2012;49.794;9.722;2023-08-30T09:49:22;18.20;99.90
3996;DHT22;2012;49.794;9.722;2023-08-30T09:51:51;18.20;99.90
3996;DHT22;2012;49.794;9.722;2023-08-30T09:54:25;18.50;99.90
3996;DHT22;2012;49.794;9.722;2023-08-30T09:57:05;18.50;99.90
3996;DHT22;2012;49.794;9.722;2023-08-30T09:59:33;18.40;99.90
3996;DHT22;2012;49.794;9.722;2023-08-30T10:02:00;18.50;99.90
3996;DHT22;2012;49.794;9.722;2023-08-30T10:04:28;18.60;99.90
3996;DHT22;2012;49.794;9.722;2023-08-30T10:06:57;18.70;99.90
3996;DHT22;2012;49.794;9.722;2023-08-30T10:09:28;18.50;99.90
3996;DHT22;2012;49.794;9.722;2023-08-30T10:11:58;18.50;99.90
3996;DHT22;2012;49.794;9.722;2023-08-30T10:14:24;18.90;99.90
3996;DHT22;2012;49.794;9.722;2023-08-30T10:16:59;18.90;99.90
3996;DHT22;2012;49.794;9.722;2023-08-30T10:19:29;19.00;99.90
3996;DHT22;2012;49.794;9.722;2023-08-30T10:22:06;19.20;99.90
3996;DHT22;2012;49.794;9.722;2023-08-30T10:27:41;19.20;99.90
3996;DHT22;2012;49.794;9.722;2023-08-30T10:30:11;19.30;99.90
3996;DHT22;2012;49.794;9.722;2023-08-30T10:32:44;19.10;99.90
3996;DHT22;2012;49.794;9.722;2023-08-30T10:35:17;18.80;99.90
3996;DHT22;2012;49.794;9.722;2023-08-30T10:37:59;18.70;99.90
3996;DHT22;2012;49.794;9.722;2023-08-30T10:40:26;18.60;99.90
3996;DHT22;2012;49.794;9.722;2023-08-30T10:43:03;18.40;99.90
3996;DHT22;2012;49.794;9.722;2023-08-30T10:45:30;18.30;99.90
3996;DHT22;2012;49.794;9.722;2023-08-30T10:47:58;18.30;99.90
3996;DHT22;2012;49.794;9.722;2023-08-30T10:50:30;18.30;99.90
3996;DHT22;2012;49.794;9.722;2023-08-30T10:52:58;18.50;99.90
3996;DHT22;2012;49.794;9.722;2023-08-30T10:55:25;18.20;99.90
3996;DHT22;2012;49.794;9.722;2023-08-30T10:58:02;18.30;99.90
3996;DHT22;2012;49.794;9.722;2023-08-30T11:00:31;18.20;99.90
3996;DHT22;2012;49.794;9.722;2023-08-30T11:02:58;18.30;99.90
3996;DHT22;2012;49.794;9.722;2023-08-30T11:05:26;18.30;99.90
3996;DHT22;2012;49.794;9.722;2023-08-30T11:07:55;18.70;99.90
3996;DHT22;2012;49.794;9.722;2023-08-30T11:10:22;18.70;99.90
3996;DHT22;2012;49.794;9.722;2023-08-30T11:12:49;19.20;99.90
3996;DHT22;2012;49.794;9.722;2023-08-30T11:15:17;19.30;99.90
3996;DHT22;2012;49.794;9.722;2023-08-30T11:17:45;19.20;99.90
3996;DHT22;2012;49.794;9.722;2023-08-30T11:20:16;19.30;99.90
3996;DHT22;2012;49.794;9.722;2023-08-30T11:22:46;19.20;99.90
3996;DHT22;2012;49.794;9.722;2023-08-30T11:25:14;19.30;99.90
3996;DHT22;2012;49.794;9.722;2023-08-30T11:27:42;19.40;99.90
3996;DHT22;2012;49.794;9.722;2023-08-30T11:30:10;19.40;99.90
3996;DHT22;2012;49.794;9.722;2023-08-30T11:32:41;19.40;99.90
3996;DHT22;2012;49.794;9.722;2023-08-30T11:35:12;19.10;99.90
3996;DHT22;2012;49.794;9.722;2023-08-30T11:37:40;19.30;99.90
3996;DHT22;2012;49.794;9.722;2023-08-30T11:40:08;19.20;99.90
3996;DHT22;2012;49.794;9.722;2023-08-30T11:42:37;19.30;99.90
3996;DHT22;2012;49.794;9.722;2023-08-30T11:45:05;19.40;99.90
3996;DHT22;2012;49.794;9.722;2023-08-30T11:47:32;19.30;99.90
3996;DHT22;2012;49.794;9.722;2023-08-30T11:49:59;19.40;99.90
3996;DHT22;2012;49.794;9.722;2023-08-30T11:52:27;19.30;99.90
3996;DHT22;2012;49.794;9.722;2023-08-30T11:54:54;19.50;99.90
3996;DHT22;2012;49.794;9.722;2023-08-30T11:57:22;19.70;99.90
3996;DHT22;2012;49.794;9.722;2023-08-30T11:59:49;19.50;99.90
3996;DHT22;2012;49.794;9.722;2023-08-30T12:02:18;19.50;99.90
3996;DHT22;2012;49.794;9.722;2023-08-30T12:04:47;19.30;99.90
3996;DHT22;2012;49.794;9.722;2023-08-30T12:07:24;19.00;99.90
3996;DHT22;2012;49.794;9.722;2023-08-30T12:09:52;18.80;99.90
3996;DHT22;2012;49.794;9.722;2023-08-30T12:12:30;18.80;99.90
3996;DHT22;2012;49.794;9.722;2023-08-30T12:14:58;18.70;99.90
3996;DHT22;2012;49.794;9.722;2023-08-30T12:17:25;18.70;99.90
3996;DHT22;2012;49.794;9.722;2023-08-30T12:19:56;18.80;99.90
3996;DHT22;2012;49.794;9.722;2023-08-30T12:22:23;18.70;99.90
3996;DHT22;2012;49.794;9.722;2023-08-30T12:24:50;18.60;99.90
3996;DHT22;2012;49.794;9.722;2023-08-30T12:27:16;18.50;99.90
3996;DHT22;2012;49.794;9.722;2023-08-30T12:29:43;18.50;99.90
3996;DHT22;2012;49.794;9.722;2023-08-30T12:32:10;18.70;99.90
3996;DHT22;2012;49.794;9.722;2023-08-30T12:34:37;18.80;99.90
3996;DHT22;2012;49.794;9.722;2023-08-30T12:37:05;18.80;99.90
3996;DHT22;2012;49.794;9.722;2023-08-30T12:39:32;18.80;99.90
3996;DHT22;2012;49.794;9.722;2023-08-30T12:41:59;18.80;99.90
3996;DHT22;2012;49.794;9.722;2023-08-30T12:44:26;18.80;99.90
3996;DHT22;2012;49.794;9.722;2023-08-30T12:46:53;19.00;99.90
3996;DHT22;2012;49.794;9.722;2023-08-30T12:49:20;19.10;99.90
3996;DHT22;2012;49.794;9.722;2023-08-30T12:51:47;19.50;99.90
3996;DHT22;2012;49.794;9.722;2023-08-30T12:54:14;19.80;99.90
3996;DHT22;2012;49.794;9.722;2023-08-30T12:56:41;19.80;99.90
3996;DHT22;2012;49.794;9.722;2023-08-30T12:59:08;19.80;99.90
3996;DHT22;2012;49.794;9.722;2023-08-30T13:01:35;19.70;99.90
3996;DHT22;2012;49.794;9.722;2023-08-30T13:04:02;19.50;99.90
3996;DHT22;2012;49.794;9.722;2023-08-30T13:06:30;19.70;99.90
3996;DHT22;2012;49.794;9.722;2023-08-30T13:08:57;20.10;99.90
3996;DHT22;2012;49.794;9.722;2023-08-30T13:11:24;20.40;99.90
3996;DHT22;2012;49.794;9.722;2023-08-30T13:13:53;20.50;99.90
3996;DHT22;2012;49.794;9.722;2023-08-30T13:16:19;20.40;99.90
3996;DHT22;2012;49.794;9.722;2023-08-30T13:18:46;20.30;99.90
3996;DHT22;2012;49.794;9.722;2023-08-30T13:21:13;20.10;99.90
3996;DHT22;2012;49.794;9.722;2023-08-30T13:23:42;20.10;99.90
3996;DHT22;2012;49.794;9.722;2023-08-30T13:26:09;20.20;99.90
3996;DHT22;2012;49.794;9.722;2023-08-30T13:28:36;20.00;99.90
3996;DHT22;2012;49.794;9.722;2023-08-30T13:31:07;20.00;99.90
3996;DHT22;2012;49.794;9.722;2023-08-30T13:33:34;20.00;99.90
3996;DHT22;2012;49.794;9.722;2023-08-30T13:36:00;20.00;99.90
3996;DHT22;2012;49.794;9.722;2023-08-30T13:38:29;20.00;99.90
3996;DHT22;2012;49.794;9.722;2023-08-30T13:40:59;20.00;99.90
3996;DHT22;2012;49.794;9.722;2023-08-30T13:43:30;20.00;99.90
3996;DHT22;2012;49.794;9.722;2023-08-30T13:45:58;20.00;99.90
3996;DHT22;2012;49.794;9.722;2023-08-30T13:48:26;20.00;99.90
3996;DHT22;2012;49.794;9.722;2023-08-30T13:50:52;20.00;99.90
3996;DHT22;2012;49.794;9.722;2023-08-30T13:53:19;20.50;99.90
3996;DHT22;2012;49.794;9.722;2023-08-30T13:55:47;20.90;99.90
3996;DHT22;2012;49.794;9.722;2023-08-30T13:58:17;21.30;99.90
3996;DHT22;2012;49.794;9.722;2023-08-30T14:00:44;21.30;99.90
3996;DHT22;2012;49.794;9.722;2023-08-30T14:03:11;21.30;99.90
3996;DHT22;2012;49.794;9.722;2023-08-30T14:05:39;21.20;99.90
3996;DHT22;2012;49.794;9.722;2023-08-30T14:08:09;20.90;99.90
3996;DHT22;2012;49.794;9.722;2023-08-30T14:10:36;20.70;99.90
3996;DHT22;2012;49.794;9.722;2023-08-30T14:13:04;20.80;99.90
3996;DHT22;2012;49.794;9.722;2023-08-30T14:15:31;21.10;99.90
3996;DHT22;2012;49.794;9.722;2023-08-30T14:17:59;21.20;99.90
3996;DHT22;2012;49.794;9.722;2023-08-30T14:20:27;21.20;99.90
3996;DHT22;2012;49.794;9.722;2023-08-30T14:22:54;21.30;99.90
3996;DHT22;2012;49.794;9.722;2023-08-30T14:25:21;21.30;99.90
3996;DHT22;2012;49.794;9.722;2023-08-30T14:27:48;21.10;99.90
3996;DHT22;2012;49.794;9.722;2023-08-30T14:30:16;21.00;99.90
3996;DHT22;2012;49.794;9.722;2023-08-30T14:32:43;20.80;99.90
3996;DHT22;2012;49.794;9.722;2023-08-30T14:35:10;20.90;99.90
3996;DHT22;2012;49.794;9.722;2023-08-30T14:37:38;21.00;99.90
3996;DHT22;2012;49.794;9.722;2023-08-30T14:40:07;21.00;99.90
3996;DHT22;2012;49.794;9.722;2023-08-30T14:42:34;21.00;99.90
3996;DHT22;2012;49.794;9.722;2023-08-30T14:45:01;21.30;99.90
3996;DHT22;2012;49.794;9.722;2023-08-30T14:47:30;21.30;99.90
3996;DHT22;2012;49.794;9.722;2023-08-30T14:49:58;21.10;99.90
3996;DHT22;2012;49.794;9.722;2023-08-30T14:52:25;21.00;99.90
3996;DHT22;2012;49.794;9.722;2023-08-30T14:54:52;20.70;99.90
3996;DHT22;2012;49.794;9.722;2023-08-30T14:57:19;20.70;99.90
3996;DHT22;2012;49.794;9.722;2023-08-30T14:59:47;20.60;99.90
3996;DHT22;2012;49.794;9.722;2023-08-30T15:02:14;20.60;99.90
3996;DHT22;2012;49.794;9.722;2023-08-30T15:04:41;20.60;99.90
3996;DHT22;2012;49.794;9.722;2023-08-30T15:07:08;20.60;99.90
3996;DHT22;2012;49.794;9.722;2023-08-30T15:09:35;20.60;99.90
3996;DHT22;2012;49.794;9.722;2023-08-30T15:12:02;20.40;99.90
3996;DHT22;2012;49.794;9.722;2023-08-30T15:14:31;20.40;99.90
3996;DHT22;2012;49.794;9.722;2023-08-30T15:16:59;20.40;99.90
3996;DHT22;2012;49.794;9.722;2023-08-30T15:19:26;20.30;99.90
3996;DHT22;2012;49.794;9.722;2023-08-30T15:21:53;20.20;99.90
3996;DHT22;2012;49.794;9.722;2023-08-30T15:24:20;20.20;99.90
3996;DHT22;2012;49.794;9.722;2023-08-30T15:26:46;20.20;99.90
3996;DHT22;2012;49.794;9.722;2023-08-30T15:29:14;20.20;99.90
3996;DHT22;2012;49.794;9.722;2023-08-30T15:31:41;20.10;99.90
3996;DHT22;2012;49.794;9.722;2023-08-30T15:34:08;20.10;99.90
3996;DHT22;2012;49.794;9.722;2023-08-30T15:36:35;20.10;99.90
3996;DHT22;2012;49.794;9.722;2023-08-30T15:39:02;20.00;99.90
3996;DHT22;2012;49.794;9.722;2023-08-30T15:41:29;19.90;99.90
3996;DHT22;2012;49.794;9.722;2023-08-30T15:43:56;19.80;99.90
3996;DHT22;2012;49.794;9.722;2023-08-30T15:46:23;19.70;99.90
3996;DHT22;2012;49.794;9.722;2023-08-30T15:48:50;19.60;99.90
3996;DHT22;2012;49.794;9.722;2023-08-30T15:51:17;19.60;99.90
3996;DHT22;2012;49.794;9.722;2023-08-30T15:53:51;19.60;99.90
3996;DHT22;2012;49.794;9.722;2023-08-30T15:56:22;19.50;99.90
3996;DHT22;2012;49.794;9.722;2023-08-30T15:58:49;19.50;99.90
3996;DHT22;2012;49.794;9.722;2023-08-30T16:01:16;19.50;99.90
3996;DHT22;2012;49.794;9.722;2023-08-30T16:03:44;19.50;99.90
3996;DHT22;2012;49.794;9.722;2023-08-30T16:06:11;19.60;99.90
3996;DHT22;2012;49.794;9.722;2023-08-30T16:08:38;19.60;99.90
3996;DHT22;2012;49.794;9.722;2023-08-30T16:11:05;19.50;99.90
3996;DHT22;2012;49.794;9.722;2023-08-30T16:13:32;19.70;99.90
3996;DHT22;2012;49.794;9.722;2023-08-30T16:15:59;19.80;99.90